Terminal Aerodrome Forecast
Issued by NWS

Home | Current Version | Previous Version | Text Only | Print | Product List | Glossary On
Versions: 1 2 3 4 5 6 7 8 9 10 11 12 13 14 15 16 17 18 19 20 21 22 23 24 25 26 27 28 29 30 31 32 33 34 35 36 37 38 39 40 41 42 43 44 45 46 47 48 49 50
000
FTUS45 KBOU 262151 AAA
TAFAPA
TAF AMD
KAPA 262151Z 2622/2718 07012KT 6SM -RA BR BKN010 OVC020
      TEMPO 2622/2624 2SM -RA BR OVC005
     FM270000 09010G18KT 3SM -RA BR SCT006 OVC010
     FM270200 07010KT 3SM -RA BR SCT003 OVC008
     FM270600 05010KT 3/4SM -RA BR SCT002 OVC004
     FM271500 04009KT 3SM -SHRA BR SCT005 OVC010=

USA.gov is the U.S. government's official web portal to all federal, state and local government web resources and services.